createdAt,value
2019-05-20T00:00:16.257Z,2.37
2019-05-20T00:02:45.531Z,2.60
2019-05-20T00:05:14.701Z,2.97
2019-05-20T00:07:43.950Z,2.20
2019-05-20T00:10:13.207Z,2.40
2019-05-20T00:12:42.467Z,2.57
2019-05-20T00:15:11.717Z,2.83
2019-05-20T00:17:41.055Z,1.87
2019-05-20T00:20:10.317Z,2.33
2019-05-20T00:22:39.585Z,2.30
2019-05-20T00:25:09.417Z,2.17
2019-05-20T00:27:38.677Z,2.10
2019-05-20T00:30:08.187Z,2.17
2019-05-20T00:32:42.093Z,3.40
2019-05-20T00:35:08.728Z,3.03
2019-05-20T00:37:37.981Z,2.40
2019-05-20T00:40:07.906Z,2.83
2019-05-20T00:42:37.029Z,2.43
2019-05-20T00:45:06.422Z,3.00
2019-05-20T00:47:35.570Z,2.30
2019-05-20T00:50:04.937Z,2.60
2019-05-20T00:52:34.102Z,2.43
2019-05-20T00:55:03.755Z,2.27
2019-05-20T00:57:32.987Z,1.93
2019-05-20T01:00:02.713Z,1.90
2019-05-20T01:02:32.378Z,1.90
2019-05-20T01:05:01.530Z,1.63
2019-05-20T01:07:30.793Z,1.80
2019-05-20T01:10:00.032Z,1.83
2019-05-20T01:12:29.261Z,1.83
2019-05-20T01:14:58.542Z,2.13
2019-05-20T01:17:27.778Z,1.60
2019-05-20T01:19:57.027Z,2.03
2019-05-20T01:22:26.320Z,2.03
2019-05-20T01:24:55.572Z,1.90
2019-05-20T01:27:24.748Z,1.40
2019-05-20T01:29:54.036Z,1.60
2019-05-20T01:32:23.267Z,1.73
2019-05-20T01:34:52.518Z,2.00
2019-05-20T01:37:21.771Z,1.90
2019-05-20T01:39:51.007Z,1.90
2019-05-20T01:42:20.177Z,2.03
2019-05-20T01:44:49.522Z,2.13
2019-05-20T01:47:18.753Z,1.83
2019-05-20T01:49:48.011Z,1.70
2019-05-20T01:52:17.253Z,1.47
2019-05-20T01:54:46.412Z,1.90
2019-05-20T01:57:15.638Z,1.43
2019-05-20T01:59:44.894Z,1.70
2019-05-20T02:02:14.146Z,2.17
2019-05-20T02:04:43.393Z,1.67
2019-05-20T02:07:12.634Z,1.97
2019-05-20T02:09:41.875Z,2.30
2019-05-20T02:12:11.098Z,2.60
2019-05-20T02:14:46.142Z,2.73
2019-05-20T02:17:15.385Z,2.67
2019-05-20T02:19:44.639Z,2.70
2019-05-20T02:22:13.905Z,2.50
2019-05-20T02:24:43.146Z,3.17
2019-05-20T02:27:12.379Z,2.53
2019-05-20T02:29:41.622Z,2.60
2019-05-20T02:32:10.859Z,3.00
2019-05-20T02:34:40.092Z,3.20
2019-05-20T02:37:09.304Z,3.03
2019-05-20T02:39:38.552Z,2.80
2019-05-20T02:42:07.762Z,3.03
2019-05-20T02:44:36.970Z,3.27
2019-05-20T02:47:06.125Z,3.47
2019-05-20T02:49:35.395Z,4.00
2019-05-20T02:52:04.645Z,4.20
2019-05-20T02:54:33.869Z,3.70
2019-05-20T02:57:03.084Z,3.83
2019-05-20T02:59:32.352Z,4.23
2019-05-20T03:02:01.589Z,4.50
2019-05-20T03:04:30.826Z,4.77
2019-05-20T03:07:00.080Z,6.23
2019-05-20T03:09:29.343Z,5.97
2019-05-20T03:11:58.560Z,7.00
2019-05-20T03:14:27.804Z,7.50
2019-05-20T03:16:57.029Z,7.43
2019-05-20T03:19:26.296Z,9.67
2019-05-20T03:21:55.529Z,9.97
2019-05-20T03:24:24.773Z,10.90
2019-05-20T03:26:54.032Z,11.90
2019-05-20T03:29:23.268Z,11.70
2019-05-20T03:31:52.424Z,11.87
2019-05-20T03:34:44.291Z,11.40
2019-05-20T03:36:52.634Z,11.47
2019-05-20T03:39:21.877Z,14.07
2019-05-20T03:41:51.042Z,12.93
2019-05-20T03:44:20.291Z,12.50
2019-05-20T03:46:49.546Z,13.83
2019-05-20T03:49:18.797Z,14.10
2019-05-20T03:51:48.100Z,15.40
2019-05-20T03:54:19.083Z,14.17
2019-05-20T03:56:48.276Z,15.63
2019-05-20T03:59:17.441Z,14.60
2019-05-20T04:01:46.716Z,16.20
2019-05-20T04:04:15.952Z,14.80
2019-05-20T04:06:45.193Z,14.77
2019-05-20T04:09:14.421Z,15.10
2019-05-20T04:11:43.667Z,15.53
2019-05-20T04:14:12.929Z,15.67
2019-05-20T04:16:42.329Z,15.80
2019-05-20T04:19:11.558Z,15.90
2019-05-20T04:21:40.840Z,16.50
2019-05-20T04:24:10.111Z,15.40
2019-05-20T04:26:39.401Z,16.17
2019-05-20T04:29:08.650Z,15.63
2019-05-20T04:31:37.917Z,17.20
2019-05-20T04:34:07.158Z,16.37
2019-05-20T04:36:36.326Z,16.60
2019-05-20T04:39:08.694Z,15.53
2019-05-20T04:41:38.040Z,16.90
2019-05-20T04:44:07.245Z,16.70
2019-05-20T04:46:36.628Z,17.50
2019-05-20T04:49:05.885Z,16.60
2019-05-20T04:51:35.219Z,18.10
2019-05-20T04:54:04.381Z,17.20
2019-05-20T04:56:33.639Z,16.40
2019-05-20T04:59:02.907Z,16.83
2019-05-20T05:01:32.116Z,17.30
2019-05-20T05:04:01.277Z,17.70
2019-05-20T05:06:30.654Z,17.60
2019-05-20T05:08:59.919Z,16.63
2019-05-20T05:11:29.180Z,17.07
2019-05-20T05:13:58.420Z,18.10
2019-05-20T05:16:27.676Z,17.43
2019-05-20T05:18:56.931Z,15.47
2019-05-20T05:21:26.101Z,16.20
2019-05-20T05:23:59.376Z,15.83
2019-05-20T05:26:26.315Z,18.33
2019-05-20T05:28:55.531Z,17.77
2019-05-20T05:31:24.873Z,15.93
2019-05-20T05:33:54.500Z,17.00
2019-05-20T05:36:23.841Z,17.07
2019-05-20T05:38:53.026Z,15.70
2019-05-20T05:41:22.672Z,16.43
2019-05-20T05:43:51.947Z,15.70
2019-05-20T05:46:21.186Z,16.50
2019-05-20T05:48:50.366Z,16.00
2019-05-20T05:51:19.653Z,16.53
2019-05-20T05:53:48.901Z,15.40
2019-05-20T05:56:20.890Z,16.30
2019-05-20T05:58:50.141Z,16.60
2019-05-20T06:01:22.257Z,15.27
2019-05-20T06:03:51.542Z,14.57
2019-05-20T06:06:20.790Z,14.83
2019-05-20T06:08:50.053Z,13.83
2019-05-20T06:11:19.328Z,14.50
2019-05-20T06:13:48.555Z,14.40
2019-05-20T06:16:33.540Z,14.43
2019-05-20T06:18:48.769Z,14.70
2019-05-20T06:21:19.589Z,15.17
2019-05-20T06:23:48.883Z,14.70
2019-05-20T06:26:18.141Z,14.67
2019-05-20T06:28:47.406Z,15.93
2019-05-20T06:31:16.585Z,15.50
2019-05-20T06:33:45.857Z,16.40
2019-05-20T06:36:26.419Z,16.70
2019-05-20T06:39:02.195Z,15.77
2019-05-20T06:41:31.495Z,15.70
2019-05-20T06:44:00.821Z,16.43
2019-05-20T06:46:29.980Z,15.50
2019-05-20T06:48:59.258Z,16.27
2019-05-20T06:51:28.493Z,15.87
2019-05-20T06:53:57.768Z,15.07
2019-05-20T06:56:27.000Z,16.43
2019-05-20T06:58:56.184Z,15.63
2019-05-20T07:01:25.429Z,16.60
2019-05-20T07:03:54.743Z,14.90
2019-05-20T07:06:23.995Z,16.27
2019-05-20T07:08:53.263Z,15.50
2019-05-20T07:11:22.490Z,16.23
2019-05-20T07:13:51.699Z,16.10
2019-05-20T07:16:20.924Z,16.50
2019-05-20T07:18:50.209Z,16.40
2019-05-20T07:21:19.563Z,16.90
2019-05-20T07:23:52.177Z,14.47
2019-05-20T07:26:19.794Z,15.83
2019-05-20T07:28:49.037Z,15.63
2019-05-20T07:31:18.198Z,13.60
2019-05-20T07:33:47.462Z,14.33
2019-05-20T07:36:16.659Z,14.10
2019-05-20T07:38:45.877Z,13.87
2019-05-20T07:41:15.033Z,14.00
2019-05-20T07:43:44.297Z,13.77
2019-05-20T07:46:13.989Z,13.90
2019-05-20T07:48:43.660Z,13.13
2019-05-20T07:51:13.957Z,13.80
2019-05-20T07:53:43.688Z,13.17
2019-05-20T07:56:16.735Z,14.13
2019-05-20T07:58:50.502Z,15.13
2019-05-20T08:01:19.765Z,13.40
2019-05-20T08:03:49.065Z,13.50
2019-05-20T08:06:18.344Z,14.93
2019-05-20T08:08:47.571Z,12.80
2019-05-20T08:11:16.837Z,14.10
2019-05-20T08:13:46.074Z,13.73
2019-05-20T08:16:15.329Z,15.20
2019-05-20T08:18:44.593Z,15.27
2019-05-20T08:21:13.807Z,15.13
2019-05-20T08:23:43.104Z,15.77
2019-05-20T08:26:12.360Z,15.97
2019-05-20T08:28:41.584Z,15.40
2019-05-20T08:31:10.872Z,15.20
2019-05-20T08:33:40.085Z,15.43
2019-05-20T08:36:09.380Z,16.97
2019-05-20T08:38:38.647Z,15.83
2019-05-20T08:41:07.912Z,15.57
2019-05-20T08:43:37.166Z,17.30
2019-05-20T08:46:06.502Z,17.50
2019-05-20T08:48:35.782Z,18.20
2019-05-20T08:51:05.098Z,18.53
2019-05-20T08:53:34.357Z,19.27
2019-05-20T08:56:03.720Z,20.30
2019-05-20T08:58:32.961Z,20.80
2019-05-20T09:01:02.222Z,22.63
2019-05-20T09:03:31.476Z,23.87
2019-05-20T09:06:00.764Z,22.70
2019-05-20T09:08:30.012Z,24.43
2019-05-20T09:10:59.218Z,24.50
2019-05-20T09:13:28.579Z,25.73
2019-05-20T09:15:57.840Z,25.60
2019-05-20T09:18:27.004Z,24.60
2019-05-20T09:20:56.268Z,25.90
2019-05-20T09:23:25.516Z,24.03
2019-05-20T09:25:54.783Z,26.33
2019-05-20T09:28:24.021Z,26.87
2019-05-20T09:30:53.802Z,26.00
2019-05-20T09:33:23.068Z,24.50
2019-05-20T09:35:52.844Z,25.30
2019-05-20T09:38:22.132Z,24.23
2019-05-20T09:40:51.383Z,24.00
2019-05-20T09:43:20.594Z,24.47
2019-05-20T09:46:05.744Z,25.37
2019-05-20T09:48:24.770Z,23.90
2019-05-20T09:50:51.984Z,23.00
2019-05-20T09:53:21.221Z,22.53
2019-05-20T09:55:50.470Z,22.73
2019-05-20T09:58:19.751Z,22.47
2019-05-20T10:00:48.903Z,23.60
2019-05-20T10:03:18.179Z,23.23
2019-05-20T10:05:47.466Z,23.77
2019-05-20T10:08:16.754Z,23.80
2019-05-20T10:10:48.131Z,23.33
2019-05-20T10:13:17.449Z,22.60
2019-05-20T10:15:46.663Z,25.17
2019-05-20T10:18:15.945Z,24.00
2019-05-20T10:20:45.198Z,26.33
2019-05-20T10:23:15.867Z,26.23
2019-05-20T10:25:45.255Z,25.47
2019-05-20T10:28:14.430Z,27.00
2019-05-20T10:30:43.694Z,26.00
2019-05-20T10:33:12.952Z,26.63
2019-05-20T10:35:42.219Z,26.13
2019-05-20T10:38:11.451Z,25.50
2019-05-20T10:40:40.626Z,24.60
2019-05-20T10:43:09.799Z,27.40
2019-05-20T10:45:39.013Z,25.50
2019-05-20T10:48:09.170Z,27.70
2019-05-20T10:50:38.587Z,24.40
2019-05-20T10:53:07.783Z,24.03
2019-05-20T10:55:37.031Z,26.57
2019-05-20T10:58:06.207Z,24.00
2019-05-20T11:00:35.459Z,27.33
2019-05-20T11:03:04.808Z,27.50
2019-05-20T11:05:34.117Z,26.70
2019-05-20T11:08:03.375Z,28.23
2019-05-20T11:10:32.607Z,28.70
2019-05-20T11:13:01.840Z,30.53
2019-05-20T11:15:31.130Z,28.30
2019-05-20T11:18:00.405Z,30.03
2019-05-20T11:20:29.551Z,28.93
2019-05-20T11:23:04.073Z,30.40
2019-05-20T11:25:33.342Z,28.57
2019-05-20T11:28:02.535Z,30.97
2019-05-20T11:30:51.138Z,31.20
2019-05-20T11:33:20.795Z,27.23
2019-05-20T11:35:50.424Z,28.03
2019-05-20T11:38:20.026Z,27.20
2019-05-20T11:40:49.630Z,27.17
2019-05-20T11:43:19.205Z,26.47
2019-05-20T11:45:48.797Z,24.93
2019-05-20T11:48:18.417Z,25.90
2019-05-20T11:50:48.072Z,25.53
2019-05-20T11:53:17.726Z,23.43
2019-05-20T11:55:47.385Z,27.07
2019-05-20T11:58:17.054Z,24.73
2019-05-20T12:00:46.936Z,23.70
2019-05-20T12:03:16.562Z,25.80
2019-05-20T12:05:46.293Z,25.03
2019-05-20T12:08:16.062Z,25.57
2019-05-20T12:10:45.694Z,25.17
2019-05-20T12:13:15.368Z,26.30
2019-05-20T12:16:04.326Z,26.60
2019-05-20T12:18:33.894Z,27.57
2019-05-20T12:21:03.630Z,27.10
2019-05-20T12:23:33.284Z,28.97
2019-05-20T12:26:03.116Z,29.70
2019-05-20T12:28:32.781Z,29.30
2019-05-20T12:31:03.013Z,30.20
2019-05-20T12:33:33.611Z,30.47
2019-05-20T12:36:03.281Z,30.30
2019-05-20T12:38:32.966Z,31.20
2019-05-20T12:41:02.719Z,33.00
2019-05-20T12:43:35.158Z,33.50
2019-05-20T12:46:07.417Z,33.87
2019-05-20T12:48:37.344Z,34.40
2019-05-20T12:51:08.878Z,33.10
2019-05-20T12:53:39.274Z,35.10
2019-05-20T12:56:09.053Z,34.07
2019-05-20T12:58:46.586Z,35.03
2019-05-20T13:01:16.230Z,37.00
2019-05-20T13:03:46.585Z,35.50
2019-05-20T13:06:16.416Z,37.57
2019-05-20T13:08:46.030Z,35.70
2019-05-20T13:11:15.789Z,38.50
2019-05-20T13:13:46.003Z,37.80
2019-05-20T13:16:15.811Z,35.93
2019-05-20T13:18:55.455Z,33.97
2019-05-20T13:21:37.291Z,33.17
2019-05-20T13:24:43.036Z,35.40
2019-05-20T13:27:18.117Z,37.47
2019-05-20T13:30:15.377Z,36.43
2019-05-20T13:33:14.038Z,38.70
2019-05-20T13:36:00.855Z,35.60
2019-05-20T13:38:28.880Z,38.67
2019-05-20T13:40:58.518Z,35.57
2019-05-20T13:43:28.228Z,35.33
2019-05-20T13:45:57.879Z,36.53
2019-05-20T13:48:27.526Z,36.33
2019-05-20T13:50:59.613Z,38.17
2019-05-20T13:53:29.221Z,35.43
2019-05-20T13:55:58.964Z,35.63
2019-05-20T13:58:31.347Z,36.53
2019-05-20T14:01:01.170Z,41.93
2019-05-20T14:03:30.889Z,37.13
2019-05-20T14:06:00.637Z,35.53
2019-05-20T14:08:30.306Z,35.47
2019-05-20T14:11:04.173Z,38.00
2019-05-20T14:13:31.675Z,38.13
2019-05-20T14:16:01.379Z,36.60
2019-05-20T14:18:31.090Z,37.57
2019-05-20T14:21:00.866Z,37.07
2019-05-20T14:23:30.604Z,37.90
2019-05-20T14:26:00.208Z,39.67
2019-05-20T14:28:29.886Z,38.73
2019-05-20T14:30:59.516Z,41.27
2019-05-20T14:33:29.102Z,38.00
2019-05-20T14:35:58.678Z,37.60
2019-05-20T14:38:28.298Z,38.27
2019-05-20T14:40:59.120Z,36.50
2019-05-20T14:43:28.867Z,35.70
2019-05-20T14:45:58.570Z,37.10
2019-05-20T14:48:28.247Z,36.30
2019-05-20T14:50:57.931Z,35.20
2019-05-20T14:53:27.715Z,36.87
2019-05-20T14:55:57.556Z,34.40
2019-05-20T14:58:27.271Z,36.47
2019-05-20T15:00:56.867Z,34.13
2019-05-20T15:03:26.479Z,35.20
2019-05-20T15:05:58.852Z,34.37
2019-05-20T15:08:28.636Z,34.97
2019-05-20T15:10:58.460Z,32.90
2019-05-20T15:13:28.133Z,34.33
2019-05-20T15:15:58.049Z,29.97
2019-05-20T15:18:27.682Z,32.30
2019-05-20T15:21:01.766Z,33.70
2019-05-20T15:23:31.547Z,32.13
2019-05-20T15:26:01.373Z,32.47
2019-05-20T15:28:32.583Z,33.57
2019-05-20T15:31:02.285Z,35.33
2019-05-20T15:33:32.020Z,33.77
2019-05-20T15:36:01.861Z,34.63
2019-05-20T15:38:31.550Z,31.00
2019-05-20T15:41:01.696Z,36.67
2019-05-20T15:43:31.491Z,32.40
2019-05-20T15:46:01.222Z,32.53
2019-05-20T15:48:30.983Z,33.60
2019-05-20T15:51:08.983Z,33.37
2019-05-20T15:53:38.686Z,34.73
2019-05-20T15:56:08.347Z,32.33
2019-05-20T15:58:37.987Z,34.40
2019-05-20T16:01:07.654Z,36.83
2019-05-20T16:03:37.401Z,34.23
2019-05-20T16:06:07.159Z,33.83
2019-05-20T16:08:36.792Z,34.93
2019-05-20T16:11:07.065Z,37.50
2019-05-20T16:13:37.015Z,35.20
2019-05-20T16:16:06.717Z,35.57
2019-05-20T16:18:36.408Z,34.70
2019-05-20T16:21:06.147Z,33.97
2019-05-20T16:23:35.852Z,35.23
2019-05-20T16:26:05.682Z,34.50
2019-05-20T16:28:35.364Z,34.30
2019-05-20T16:31:05.112Z,34.93
2019-05-20T16:33:34.813Z,33.40
2019-05-20T16:36:07.582Z,29.10
2019-05-20T16:38:39.264Z,27.30
2019-05-20T16:41:09.060Z,26.83
2019-05-20T16:43:43.318Z,24.93
2019-05-20T16:46:19.081Z,23.10
2019-05-20T16:48:48.848Z,23.97
2019-05-20T16:51:22.026Z,25.00
2019-05-20T16:53:49.929Z,22.90
2019-05-20T16:56:19.540Z,23.50
2019-05-20T16:58:49.603Z,23.90
2019-05-20T17:01:19.599Z,25.27
2019-05-20T17:03:56.045Z,24.80
2019-05-20T17:06:29.821Z,27.40
2019-05-20T17:09:09.755Z,26.00
2019-05-20T17:11:39.566Z,30.70
2019-05-20T17:14:10.651Z,28.77
2019-05-20T17:16:41.826Z,29.20
2019-05-20T17:19:11.745Z,31.50
2019-05-20T17:21:41.493Z,30.77
2019-05-20T17:24:11.403Z,34.93
2019-05-20T17:26:41.854Z,35.47
2019-05-20T17:29:17.889Z,33.17
2019-05-20T17:31:47.858Z,34.40
2019-05-20T17:34:17.851Z,34.00
2019-05-20T17:36:47.954Z,31.43
2019-05-20T17:39:18.282Z,33.03
2019-05-20T17:41:48.284Z,34.87
2019-05-20T17:44:18.219Z,34.97
2019-05-20T17:46:48.425Z,35.03
2019-05-20T17:49:26.024Z,36.50
2019-05-20T17:51:56.199Z,35.87
2019-05-20T17:54:31.928Z,34.73
2019-05-20T17:57:05.093Z,36.80
2019-05-20T17:59:40.714Z,37.30
2019-05-20T18:02:14.617Z,41.27
2019-05-20T18:04:49.304Z,41.57
2019-05-20T18:07:22.185Z,42.13
2019-05-20T18:09:54.650Z,41.67
2019-05-20T18:12:24.330Z,40.47
2019-05-20T18:14:56.410Z,39.60
2019-05-20T18:17:25.995Z,43.57
2019-05-20T18:19:56.213Z,38.20
2019-05-20T18:22:25.816Z,44.07
2019-05-20T18:24:55.477Z,41.80
2019-05-20T18:27:25.072Z,42.30
2019-05-20T18:29:54.714Z,41.90
2019-05-20T18:32:24.412Z,44.07
2019-05-20T18:34:53.993Z,40.47
2019-05-20T18:37:23.621Z,43.57
2019-05-20T18:39:53.525Z,43.57
2019-05-20T18:42:23.520Z,43.33
2019-05-20T18:44:57.878Z,42.20
2019-05-20T18:47:27.560Z,44.53
2019-05-20T18:49:57.396Z,41.97
2019-05-20T18:52:27.109Z,45.10
2019-05-20T18:54:56.995Z,45.90
2019-05-20T18:57:26.644Z,41.30
2019-05-20T18:59:56.610Z,45.63
2019-05-20T19:02:26.327Z,41.60
2019-05-20T19:04:56.112Z,41.97
2019-05-20T19:07:26.091Z,48.50
2019-05-20T19:09:55.740Z,44.90
2019-05-20T19:12:25.339Z,46.10
2019-05-20T19:14:55.194Z,44.67
2019-05-20T19:17:25.025Z,44.53
2019-05-20T19:19:54.889Z,44.17
2019-05-20T19:22:27.687Z,47.43
2019-05-20T19:24:57.769Z,43.40
2019-05-20T19:27:27.760Z,46.70
2019-05-20T19:30:03.727Z,45.07
2019-05-20T19:32:33.760Z,47.07
2019-05-20T19:35:03.705Z,47.90
2019-05-20T19:37:33.833Z,49.70
2019-05-20T19:40:04.128Z,44.50
2019-05-20T19:42:34.213Z,45.10
2019-05-20T19:45:04.140Z,48.30
2019-05-20T19:47:33.950Z,48.07
2019-05-20T19:50:03.746Z,46.33
2019-05-20T19:52:33.561Z,49.40
2019-05-20T19:55:03.579Z,46.30
2019-05-20T19:57:33.904Z,46.20
2019-05-20T20:00:03.682Z,47.70
2019-05-20T20:02:39.238Z,46.47
2019-05-20T20:05:09.418Z,48.03
2019-05-20T20:07:39.460Z,47.87
2019-05-20T20:10:09.534Z,47.73
2019-05-20T20:12:39.329Z,47.57
2019-05-20T20:15:09.560Z,46.90
2019-05-20T20:17:42.458Z,45.23
2019-05-20T20:20:12.440Z,46.13
2019-05-20T20:22:42.156Z,44.77
2019-05-20T20:25:12.034Z,46.33
2019-05-20T20:27:41.845Z,46.57
2019-05-20T20:30:11.911Z,48.93
2019-05-20T20:32:41.656Z,49.40
2019-05-20T20:35:11.518Z,47.20
2019-05-20T20:37:41.401Z,45.90
2019-05-20T20:40:11.896Z,47.50
2019-05-20T20:42:43.401Z,46.77
2019-05-20T20:45:13.288Z,45.43
2019-05-20T20:47:43.467Z,43.37
2019-05-20T20:50:13.918Z,43.83
2019-05-20T20:52:43.850Z,44.40
2019-05-20T20:55:16.679Z,45.07
2019-05-20T20:57:46.281Z,45.07
2019-05-20T21:00:16.529Z,46.13
2019-05-20T21:03:05.371Z,45.03
2019-05-20T21:05:35.135Z,44.50
2019-05-20T21:08:05.070Z,43.43
2019-05-20T21:10:34.771Z,43.70
2019-05-20T21:13:04.798Z,44.33
2019-05-20T21:15:34.655Z,45.43
2019-05-20T21:18:04.507Z,45.20
2019-05-20T21:20:34.274Z,43.87
2019-05-20T21:23:04.140Z,47.70
2019-05-20T21:25:42.880Z,47.40
2019-05-20T21:28:12.712Z,47.03
2019-05-20T21:30:42.606Z,47.17
2019-05-20T21:33:12.478Z,43.00
2019-05-20T21:35:45.371Z,42.17
2019-05-20T21:38:14.014Z,39.30
2019-05-20T21:40:44.055Z,40.27
2019-05-20T21:43:14.282Z,38.50
2019-05-20T21:45:44.003Z,33.87
2019-05-20T21:48:13.554Z,35.10
2019-05-20T21:50:44.043Z,32.93
2019-05-20T21:53:13.704Z,31.53
2019-05-20T21:55:43.456Z,34.53
2019-05-20T21:58:13.174Z,34.80
2019-05-20T22:01:01.630Z,35.27
2019-05-20T22:03:31.285Z,36.40
2019-05-20T22:06:02.536Z,34.77
2019-05-20T22:08:32.208Z,35.97
2019-05-20T22:11:01.770Z,37.87
2019-05-20T22:13:31.498Z,37.53
2019-05-20T22:16:01.142Z,38.83
2019-05-20T22:18:30.865Z,36.60
2019-05-20T22:21:00.568Z,33.80
2019-05-20T22:23:53.765Z,35.70
2019-05-20T22:26:23.359Z,31.57
2019-05-20T22:28:53.106Z,34.67
2019-05-20T22:31:22.765Z,35.83
2019-05-20T22:33:52.447Z,37.67
2019-05-20T22:36:22.261Z,35.73
2019-05-20T22:38:51.863Z,38.37
2019-05-20T22:41:21.590Z,38.27
2019-05-20T22:43:51.390Z,33.63
2019-05-20T22:46:21.128Z,35.20
2019-05-20T22:48:50.701Z,34.17
2019-05-20T22:51:20.284Z,32.53
2019-05-20T22:53:49.929Z,33.40
2019-05-20T22:56:19.551Z,32.13
2019-05-20T22:58:49.256Z,34.10
2019-05-20T23:01:18.913Z,31.40
2019-05-20T23:03:56.010Z,26.87
2019-05-20T23:06:19.812Z,30.90
2019-05-20T23:08:49.537Z,20.33
2019-05-20T23:11:19.176Z,19.50
2019-05-20T23:13:48.794Z,15.90
2019-05-20T23:16:18.372Z,14.03
2019-05-20T23:18:48.033Z,13.47
2019-05-20T23:21:17.890Z,13.00
2019-05-20T23:23:47.493Z,18.50
2019-05-20T23:26:17.078Z,20.20
2019-05-20T23:28:46.617Z,22.80
2019-05-20T23:31:16.229Z,23.03
2019-05-20T23:33:45.821Z,24.70
2019-05-20T23:36:15.405Z,23.20
2019-05-20T23:38:45.015Z,26.60
2019-05-20T23:41:14.622Z,21.63
2019-05-20T23:43:44.273Z,22.87
2019-05-20T23:46:13.992Z,24.73
2019-05-20T23:48:43.609Z,23.50
2019-05-20T23:51:13.294Z,22.83
2019-05-20T23:53:42.968Z,23.80
2019-05-20T23:56:12.568Z,23.07
2019-05-20T23:58:42.152Z,25.70
